Terminal Aerodrome Forecast
Issued by NWS

Home | Current Version | Previous Version | Text Only | Print | Product List | Glossary On
Versions: 1 2 3 4 5 6 7 8 9 10 11 12 13 14 15
000
FTUS41 KBTV 032320
TAFMPV
TAF
KMPV 032320Z 0400/0424 18010G20KT 3SM -SN BR SCT025 OVC050
      TEMPO 0400/0401 2SM -SN BR BKN025
     FM040100 18011KT 1SM -SN BR OVC015
     FM040600 20008KT P6SM VCSH OVC020
     FM041200 29009G18KT P6SM SCT040 SCT250=

USA.gov is the U.S. government's official web portal to all federal, state and local government web resources and services.